Lancaster, Minnesota
Current Conditions -  °F | °C
As of 12:33 AM on Wednesday 26 Nov 2014 (Local Time) from KHCO Reporting Station
Overcast Overcast  
Wind Chill: -9°   Ceiling: 11000
Heat Index:   Visibility: 10mi
Dew Point:   Wind: 13mph
Humidity: 79%   Direction: 360°N
Pressure: 30.21"   Gusts: NA
Location:  48.86°N, 96.8°W
Report Text: KHCO 260633Z AUTO 36011KT 10SM OVC110 M14/M17 A3021 RMK AO2
Loading
Personal Weather Stations






























Interactive Weather Map New forecast layout! Learn more

10-Day Weather Forecast

Advertisements
Track Severe Weather on mobile